sensor_id;sensor_type;location;lat;lon;timestamp;P1;durP1;ratioP1;P2;durP2;ratioP2
34988;SDS011;21192;40.182;44.516;2023-04-03T00:02:18;9.30;;;4.53;;
34988;SDS011;21192;40.182;44.516;2023-04-03T00:04:44;11.27;;;5.47;;
34988;SDS011;21192;40.182;44.516;2023-04-03T00:07:10;11.35;;;5.53;;
34988;SDS011;21192;40.182;44.516;2023-04-03T00:09:37;10.55;;;5.53;;
34988;SDS011;21192;40.182;44.516;2023-04-03T00:12:03;13.23;;;6.13;;
34988;SDS011;21192;40.182;44.516;2023-04-03T00:14:29;14.13;;;5.60;;
34988;SDS011;21192;40.182;44.516;2023-04-03T00:16:55;12.82;;;5.72;;
34988;SDS011;21192;40.182;44.516;2023-04-03T00:19:20;12.25;;;5.15;;
34988;SDS011;21192;40.182;44.516;2023-04-03T00:21:46;15.27;;;5.95;;
34988;SDS011;21192;40.182;44.516;2023-04-03T00:24:12;13.85;;;5.88;;
34988;SDS011;21192;40.182;44.516;2023-04-03T00:26:38;11.30;;;5.90;;
34988;SDS011;21192;40.182;44.516;2023-04-03T00:29:05;15.93;;;5.85;;
34988;SDS011;21192;40.182;44.516;2023-04-03T00:31:30;13.10;;;6.18;;
34988;SDS011;21192;40.182;44.516;2023-04-03T00:33:56;13.98;;;5.68;;
34988;SDS011;21192;40.182;44.516;2023-04-03T00:36:23;9.52;;;5.13;;
34988;SDS011;21192;40.182;44.516;2023-04-03T00:38:49;11.57;;;5.30;;
34988;SDS011;21192;40.182;44.516;2023-04-03T00:41:15;9.32;;;5.35;;
34988;SDS011;21192;40.182;44.516;2023-04-03T00:43:40;10.10;;;5.13;;
34988;SDS011;21192;40.182;44.516;2023-04-03T00:46:06;10.15;;;5.50;;
34988;SDS011;21192;40.182;44.516;2023-04-03T00:48:33;11.10;;;5.50;;
34988;SDS011;21192;40.182;44.516;2023-04-03T00:51:06;12.73;;;5.40;;
34988;SDS011;21192;40.182;44.516;2023-04-03T00:53:56;9.27;;;5.13;;
34988;SDS011;21192;40.182;44.516;2023-04-03T00:56:23;13.90;;;6.65;;
34988;SDS011;21192;40.182;44.516;2023-04-03T00:58:52;17.00;;;6.70;;
34988;SDS011;21192;40.182;44.516;2023-04-03T01:01:23;10.52;;;5.50;;
34988;SDS011;21192;40.182;44.516;2023-04-03T01:03:50;12.68;;;6.47;;
34988;SDS011;21192;40.182;44.516;2023-04-03T01:06:17;15.90;;;6.60;;
34988;SDS011;21192;40.182;44.516;2023-04-03T01:08:48;12.93;;;6.70;;
34988;SDS011;21192;40.182;44.516;2023-04-03T01:11:15;16.38;;;7.07;;
34988;SDS011;21192;40.182;44.516;2023-04-03T01:13:41;11.55;;;5.80;;
34988;SDS011;21192;40.182;44.516;2023-04-03T01:16:07;9.45;;;5.93;;
34988;SDS011;21192;40.182;44.516;2023-04-03T01:18:35;9.45;;;5.35;;
34988;SDS011;21192;40.182;44.516;2023-04-03T01:26:34;10.70;;;6.45;;
34988;SDS011;21192;40.182;44.516;2023-04-03T01:29:01;13.43;;;5.85;;
34988;SDS011;21192;40.182;44.516;2023-04-03T01:33:57;10.35;;;4.90;;
34988;SDS011;21192;40.182;44.516;2023-04-03T01:36:24;11.18;;;5.32;;
34988;SDS011;21192;40.182;44.516;2023-04-03T01:38:53;10.65;;;5.18;;
34988;SDS011;21192;40.182;44.516;2023-04-03T01:41:21;10.43;;;5.70;;
34988;SDS011;21192;40.182;44.516;2023-04-03T01:43:47;13.23;;;5.72;;
34988;SDS011;21192;40.182;44.516;2023-04-03T01:46:15;14.15;;;5.55;;
34988;SDS011;21192;40.182;44.516;2023-04-03T01:48:41;12.55;;;5.30;;
34988;SDS011;21192;40.182;44.516;2023-04-03T01:51:07;11.05;;;5.40;;
34988;SDS011;21192;40.182;44.516;2023-04-03T01:53:33;12.25;;;5.72;;
34988;SDS011;21192;40.182;44.516;2023-04-03T01:55:59;9.63;;;5.00;;
34988;SDS011;21192;40.182;44.516;2023-04-03T01:58:25;9.73;;;5.80;;
34988;SDS011;21192;40.182;44.516;2023-04-03T02:00:51;10.18;;;4.97;;
34988;SDS011;21192;40.182;44.516;2023-04-03T02:03:17;11.07;;;5.50;;
34988;SDS011;21192;40.182;44.516;2023-04-03T02:05:43;11.98;;;5.97;;
34988;SDS011;21192;40.182;44.516;2023-04-03T02:08:12;11.00;;;5.07;;
34988;SDS011;21192;40.182;44.516;2023-04-03T02:10:38;8.55;;;5.55;;
34988;SDS011;21192;40.182;44.516;2023-04-03T02:13:05;8.23;;;4.82;;
34988;SDS011;21192;40.182;44.516;2023-04-03T02:15:30;11.65;;;5.47;;
34988;SDS011;21192;40.182;44.516;2023-04-03T02:17:56;12.73;;;5.38;;
34988;SDS011;21192;40.182;44.516;2023-04-03T02:20:22;13.30;;;5.88;;
34988;SDS011;21192;40.182;44.516;2023-04-03T02:22:48;14.23;;;5.40;;
34988;SDS011;21192;40.182;44.516;2023-04-03T02:25:14;9.73;;;5.25;;
34988;SDS011;21192;40.182;44.516;2023-04-03T02:27:40;10.32;;;5.00;;
34988;SDS011;21192;40.182;44.516;2023-04-03T02:30:06;9.25;;;4.82;;
34988;SDS011;21192;40.182;44.516;2023-04-03T02:32:34;10.48;;;4.90;;
34988;SDS011;21192;40.182;44.516;2023-04-03T02:35:00;12.55;;;5.20;;
34988;SDS011;21192;40.182;44.516;2023-04-03T02:37:26;11.10;;;5.78;;
34988;SDS011;21192;40.182;44.516;2023-04-03T02:39:51;14.38;;;5.05;;
34988;SDS011;21192;40.182;44.516;2023-04-03T02:42:17;10.18;;;4.78;;
34988;SDS011;21192;40.182;44.516;2023-04-03T02:44:43;11.00;;;5.05;;
34988;SDS011;21192;40.182;44.516;2023-04-03T02:47:09;9.45;;;4.50;;
34988;SDS011;21192;40.182;44.516;2023-04-03T02:49:35;12.30;;;5.20;;
34988;SDS011;21192;40.182;44.516;2023-04-03T02:52:01;11.05;;;5.28;;
34988;SDS011;21192;40.182;44.516;2023-04-03T02:54:27;10.52;;;5.28;;
34988;SDS011;21192;40.182;44.516;2023-04-03T02:56:55;11.73;;;5.28;;
34988;SDS011;21192;40.182;44.516;2023-04-03T02:59:21;9.00;;;4.82;;
34988;SDS011;21192;40.182;44.516;2023-04-03T03:01:47;9.63;;;5.05;;
34988;SDS011;21192;40.182;44.516;2023-04-03T03:04:13;12.85;;;5.32;;
34988;SDS011;21192;40.182;44.516;2023-04-03T03:06:39;14.10;;;5.78;;
34988;SDS011;21192;40.182;44.516;2023-04-03T03:09:06;12.38;;;5.47;;
34988;SDS011;21192;40.182;44.516;2023-04-03T03:11:32;8.23;;;5.15;;
34988;SDS011;21192;40.182;44.516;2023-04-03T03:13:58;11.93;;;5.22;;
34988;SDS011;21192;40.182;44.516;2023-04-03T03:16:23;13.98;;;5.85;;
34988;SDS011;21192;40.182;44.516;2023-04-03T03:18:49;12.85;;;6.05;;
34988;SDS011;21192;40.182;44.516;2023-04-03T03:21:15;11.57;;;6.93;;
34988;SDS011;21192;40.182;44.516;2023-04-03T03:23:41;10.63;;;6.50;;
34988;SDS011;21192;40.182;44.516;2023-04-03T03:26:08;18.02;;;7.07;;
34988;SDS011;21192;40.182;44.516;2023-04-03T03:28:36;13.98;;;7.35;;
34988;SDS011;21192;40.182;44.516;2023-04-03T03:31:03;12.95;;;7.40;;
34988;SDS011;21192;40.182;44.516;2023-04-03T03:33:29;17.00;;;7.47;;
34988;SDS011;21192;40.182;44.516;2023-04-03T03:35:56;15.32;;;6.88;;
34988;SDS011;21192;40.182;44.516;2023-04-03T03:38:22;15.52;;;7.45;;
34988;SDS011;21192;40.182;44.516;2023-04-03T03:40:48;10.68;;;6.28;;
34988;SDS011;21192;40.182;44.516;2023-04-03T03:43:15;15.63;;;7.32;;
34988;SDS011;21192;40.182;44.516;2023-04-03T03:45:41;15.68;;;6.93;;
34988;SDS011;21192;40.182;44.516;2023-04-03T03:48:07;23.17;;;7.22;;
34988;SDS011;21192;40.182;44.516;2023-04-03T03:50:33;12.77;;;7.25;;
34988;SDS011;21192;40.182;44.516;2023-04-03T03:52:59;15.52;;;6.68;;
34988;SDS011;21192;40.182;44.516;2023-04-03T03:55:25;15.43;;;6.65;;
34988;SDS011;21192;40.182;44.516;2023-04-03T03:57:51;16.10;;;7.22;;
34988;SDS011;21192;40.182;44.516;2023-04-03T04:00:17;16.90;;;7.65;;
34988;SDS011;21192;40.182;44.516;2023-04-03T04:02:43;11.05;;;6.47;;
34988;SDS011;21192;40.182;44.516;2023-04-03T04:05:09;16.23;;;6.43;;
34988;SDS011;21192;40.182;44.516;2023-04-03T04:07:35;13.50;;;6.13;;
34988;SDS011;21192;40.182;44.516;2023-04-03T04:10:01;14.70;;;6.43;;
34988;SDS011;21192;40.182;44.516;2023-04-03T04:12:28;15.93;;;6.60;;
34988;SDS011;21192;40.182;44.516;2023-04-03T04:14:53;13.30;;;6.38;;
34988;SDS011;21192;40.182;44.516;2023-04-03T04:17:19;16.65;;;6.57;;
34988;SDS011;21192;40.182;44.516;2023-04-03T04:19:46;20.92;;;7.72;;
34988;SDS011;21192;40.182;44.516;2023-04-03T04:22:12;15.07;;;7.00;;
34988;SDS011;21192;40.182;44.516;2023-04-03T04:24:37;13.77;;;6.75;;
34988;SDS011;21192;40.182;44.516;2023-04-03T04:27:03;18.60;;;8.57;;
34988;SDS011;21192;40.182;44.516;2023-04-03T04:29:29;11.48;;;8.18;;
34988;SDS011;21192;40.182;44.516;2023-04-03T04:32:00;20.77;;;8.85;;
34988;SDS011;21192;40.182;44.516;2023-04-03T04:34:26;13.93;;;8.02;;
34988;SDS011;21192;40.182;44.516;2023-04-03T04:36:52;15.90;;;8.10;;
34988;SDS011;21192;40.182;44.516;2023-04-03T04:39:18;19.13;;;7.97;;
34988;SDS011;21192;40.182;44.516;2023-04-03T04:41:44;19.20;;;8.80;;
34988;SDS011;21192;40.182;44.516;2023-04-03T04:44:10;27.67;;;9.00;;
34988;SDS011;21192;40.182;44.516;2023-04-03T04:46:36;16.38;;;8.38;;
34988;SDS011;21192;40.182;44.516;2023-04-03T04:49:01;19.88;;;9.32;;
34988;SDS011;21192;40.182;44.516;2023-04-03T04:51:27;17.83;;;9.23;;
34988;SDS011;21192;40.182;44.516;2023-04-03T04:53:53;31.10;;;10.52;;
34988;SDS011;21192;40.182;44.516;2023-04-03T04:56:19;18.85;;;9.43;;
34988;SDS011;21192;40.182;44.516;2023-04-03T04:58:45;18.95;;;9.18;;
34988;SDS011;21192;40.182;44.516;2023-04-03T05:01:11;14.65;;;7.75;;
34988;SDS011;21192;40.182;44.516;2023-04-03T05:03:37;17.17;;;8.10;;
34988;SDS011;21192;40.182;44.516;2023-04-03T05:06:03;21.60;;;7.47;;
34988;SDS011;21192;40.182;44.516;2023-04-03T05:08:29;17.17;;;7.60;;
34988;SDS011;21192;40.182;44.516;2023-04-03T05:10:55;15.80;;;7.05;;
34988;SDS011;21192;40.182;44.516;2023-04-03T05:13:21;18.20;;;8.32;;
34988;SDS011;21192;40.182;44.516;2023-04-03T05:15:47;16.40;;;7.85;;
34988;SDS011;21192;40.182;44.516;2023-04-03T05:18:13;16.45;;;7.85;;
34988;SDS011;21192;40.182;44.516;2023-04-03T05:20:40;25.55;;;8.07;;
34988;SDS011;21192;40.182;44.516;2023-04-03T05:23:06;21.50;;;8.38;;
34988;SDS011;21192;40.182;44.516;2023-04-03T05:25:32;18.17;;;7.70;;
34988;SDS011;21192;40.182;44.516;2023-04-03T05:27:57;20.08;;;8.10;;
34988;SDS011;21192;40.182;44.516;2023-04-03T05:30:23;15.27;;;7.15;;
34988;SDS011;21192;40.182;44.516;2023-04-03T05:32:49;15.68;;;8.68;;
34988;SDS011;21192;40.182;44.516;2023-04-03T05:35:15;22.15;;;8.57;;
34988;SDS011;21192;40.182;44.516;2023-04-03T05:37:41;18.65;;;7.85;;
34988;SDS011;21192;40.182;44.516;2023-04-03T05:40:07;13.82;;;8.40;;
34988;SDS011;21192;40.182;44.516;2023-04-03T05:42:33;16.13;;;7.80;;
34988;SDS011;21192;40.182;44.516;2023-04-03T05:44:59;23.48;;;8.70;;
34988;SDS011;21192;40.182;44.516;2023-04-03T05:47:25;26.30;;;9.38;;
34988;SDS011;21192;40.182;44.516;2023-04-03T05:49:51;22.65;;;10.00;;
34988;SDS011;21192;40.182;44.516;2023-04-03T05:52:21;13.10;;;9.73;;
34988;SDS011;21192;40.182;44.516;2023-04-03T05:54:55;24.13;;;10.40;;
34988;SDS011;21192;40.182;44.516;2023-04-03T05:57:21;23.75;;;11.73;;
34988;SDS011;21192;40.182;44.516;2023-04-03T05:59:47;23.92;;;12.15;;
34988;SDS011;21192;40.182;44.516;2023-04-03T06:02:14;29.13;;;11.73;;
34988;SDS011;21192;40.182;44.516;2023-04-03T06:04:42;29.48;;;12.23;;
34988;SDS011;21192;40.182;44.516;2023-04-03T06:07:11;24.10;;;11.38;;
34988;SDS011;21192;40.182;44.516;2023-04-03T06:09:40;23.23;;;10.40;;
34988;SDS011;21192;40.182;44.516;2023-04-03T06:12:07;20.90;;;9.88;;
34988;SDS011;21192;40.182;44.516;2023-04-03T06:14:33;30.65;;;11.15;;
34988;SDS011;21192;40.182;44.516;2023-04-03T06:16:59;27.48;;;9.98;;
34988;SDS011;21192;40.182;44.516;2023-04-03T06:19:25;31.42;;;11.07;;
34988;SDS011;21192;40.182;44.516;2023-04-03T06:21:51;27.90;;;10.50;;
34988;SDS011;21192;40.182;44.516;2023-04-03T06:24:17;23.25;;;9.30;;
34988;SDS011;21192;40.182;44.516;2023-04-03T06:26:45;22.25;;;8.43;;
34988;SDS011;21192;40.182;44.516;2023-04-03T06:29:11;21.60;;;8.75;;
34988;SDS011;21192;40.182;44.516;2023-04-03T06:31:37;16.08;;;7.95;;
34988;SDS011;21192;40.182;44.516;2023-04-03T06:34:03;41.95;;;11.13;;
34988;SDS011;21192;40.182;44.516;2023-04-03T06:36:29;15.23;;;6.13;;
34988;SDS011;21192;40.182;44.516;2023-04-03T06:38:55;13.23;;;6.95;;
34988;SDS011;21192;40.182;44.516;2023-04-03T06:41:21;11.30;;;6.35;;
34988;SDS011;21192;40.182;44.516;2023-04-03T06:43:47;16.30;;;7.70;;
34988;SDS011;21192;40.182;44.516;2023-04-03T06:46:17;15.48;;;6.60;;
34988;SDS011;21192;40.182;44.516;2023-04-03T06:48:44;14.52;;;6.32;;
34988;SDS011;21192;40.182;44.516;2023-04-03T06:51:16;17.33;;;7.07;;
34988;SDS011;21192;40.182;44.516;2023-04-03T06:53:42;23.80;;;7.28;;
34988;SDS011;21192;40.182;44.516;2023-04-03T06:56:08;24.75;;;7.55;;
34988;SDS011;21192;40.182;44.516;2023-04-03T06:58:34;15.20;;;6.10;;
34988;SDS011;21192;40.182;44.516;2023-04-03T07:01:01;22.33;;;7.55;;
34988;SDS011;21192;40.182;44.516;2023-04-03T07:03:26;16.15;;;5.55;;
34988;SDS011;21192;40.182;44.516;2023-04-03T07:05:52;19.45;;;6.93;;
34988;SDS011;21192;40.182;44.516;2023-04-03T07:08:18;33.85;;;9.02;;
34988;SDS011;21192;40.182;44.516;2023-04-03T07:10:44;31.45;;;8.15;;
34988;SDS011;21192;40.182;44.516;2023-04-03T07:13:10;29.10;;;9.45;;
34988;SDS011;21192;40.182;44.516;2023-04-03T07:15:36;37.22;;;8.50;;
34988;SDS011;21192;40.182;44.516;2023-04-03T07:18:02;17.15;;;6.55;;
34988;SDS011;21192;40.182;44.516;2023-04-03T07:20:27;19.38;;;6.65;;
34988;SDS011;21192;40.182;44.516;2023-04-03T07:22:53;35.45;;;7.85;;
34988;SDS011;21192;40.182;44.516;2023-04-03T07:25:19;44.35;;;8.23;;
34988;SDS011;21192;40.182;44.516;2023-04-03T07:27:45;22.63;;;7.75;;
34988;SDS011;21192;40.182;44.516;2023-04-03T07:30:11;52.75;;;10.68;;
34988;SDS011;21192;40.182;44.516;2023-04-03T07:32:39;22.20;;;8.02;;
34988;SDS011;21192;40.182;44.516;2023-04-03T07:35:05;20.70;;;7.72;;
34988;SDS011;21192;40.182;44.516;2023-04-03T07:37:31;24.33;;;6.93;;
34988;SDS011;21192;40.182;44.516;2023-04-03T07:39:57;31.58;;;9.05;;
34988;SDS011;21192;40.182;44.516;2023-04-03T07:42:24;21.13;;;6.00;;
34988;SDS011;21192;40.182;44.516;2023-04-03T07:44:52;31.95;;;6.78;;
34988;SDS011;21192;40.182;44.516;2023-04-03T07:47:19;57.33;;;8.70;;
34988;SDS011;21192;40.182;44.516;2023-04-03T07:49:46;47.70;;;8.02;;
34988;SDS011;21192;40.182;44.516;2023-04-03T07:52:12;19.02;;;5.30;;
34988;SDS011;21192;40.182;44.516;2023-04-03T07:54:39;21.98;;;6.25;;
34988;SDS011;21192;40.182;44.516;2023-04-03T07:57:05;15.98;;;6.60;;
34988;SDS011;21192;40.182;44.516;2023-04-03T07:59:31;36.40;;;7.10;;
34988;SDS011;21192;40.182;44.516;2023-04-03T08:01:57;13.60;;;4.95;;
34988;SDS011;21192;40.182;44.516;2023-04-03T08:04:23;35.47;;;7.90;;
34988;SDS011;21192;40.182;44.516;2023-04-03T08:06:50;34.65;;;7.07;;
34988;SDS011;21192;40.182;44.516;2023-04-03T08:09:16;28.33;;;5.85;;
34988;SDS011;21192;40.182;44.516;2023-04-03T08:11:42;14.60;;;5.40;;
34988;SDS011;21192;40.182;44.516;2023-04-03T08:14:09;24.88;;;6.53;;
34988;SDS011;21192;40.182;44.516;2023-04-03T08:16:40;18.73;;;6.13;;
34988;SDS011;21192;40.182;44.516;2023-04-03T08:19:06;16.52;;;4.63;;
34988;SDS011;21192;40.182;44.516;2023-04-03T08:21:32;27.23;;;6.57;;
34988;SDS011;21192;40.182;44.516;2023-04-03T08:23:58;21.73;;;6.20;;
34988;SDS011;21192;40.182;44.516;2023-04-03T08:26:24;8.30;;;4.60;;
34988;SDS011;21192;40.182;44.516;2023-04-03T08:28:51;27.25;;;5.30;;
34988;SDS011;21192;40.182;44.516;2023-04-03T08:31:18;22.83;;;5.95;;
34988;SDS011;21192;40.182;44.516;2023-04-03T08:33:45;22.15;;;6.20;;
34988;SDS011;21192;40.182;44.516;2023-04-03T08:36:27;23.83;;;6.18;;
34988;SDS011;21192;40.182;44.516;2023-04-03T08:38:55;23.52;;;6.05;;
34988;SDS011;21192;40.182;44.516;2023-04-03T08:49:24;16.55;;;5.82;;
34988;SDS011;21192;40.182;44.516;2023-04-03T08:51:54;20.45;;;7.25;;
34988;SDS011;21192;40.182;44.516;2023-04-03T08:54:36;28.42;;;7.78;;
34988;SDS011;21192;40.182;44.516;2023-04-03T08:57:16;13.65;;;7.00;;
34988;SDS011;21192;40.182;44.516;2023-04-03T08:59:48;11.75;;;6.38;;
34988;SDS011;21192;40.182;44.516;2023-04-03T09:02:24;13.88;;;6.63;;
34988;SDS011;21192;40.182;44.516;2023-04-03T09:08:44;14.07;;;4.68;;
34988;SDS011;21192;40.182;44.516;2023-04-03T09:11:57;11.70;;;4.68;;
34988;SDS011;21192;40.182;44.516;2023-04-03T09:26:07;11.77;;;5.25;;
34988;SDS011;21192;40.182;44.516;2023-04-03T09:28:39;8.65;;;4.90;;
34988;SDS011;21192;40.182;44.516;2023-04-03T09:31:26;10.30;;;5.18;;
34988;SDS011;21192;40.182;44.516;2023-04-03T09:33:56;11.23;;;5.72;;
34988;SDS011;21192;40.182;44.516;2023-04-03T09:39:14;10.50;;;4.85;;
34988;SDS011;21192;40.182;44.516;2023-04-03T09:42:03;16.58;;;5.55;;
34988;SDS011;21192;40.182;44.516;2023-04-03T09:44:35;13.05;;;5.32;;
34988;SDS011;21192;40.182;44.516;2023-04-03T09:50:34;15.30;;;5.90;;
34988;SDS011;21192;40.182;44.516;2023-04-03T09:52:47;19.88;;;6.47;;
34988;SDS011;21192;40.182;44.516;2023-04-03T09:55:23;13.25;;;5.82;;
34988;SDS011;21192;40.182;44.516;2023-04-03T09:57:57;27.65;;;6.45;;
34988;SDS011;21192;40.182;44.516;2023-04-03T10:00:26;12.77;;;7.32;;
34988;SDS011;21192;40.182;44.516;2023-04-03T10:02:58;23.50;;;5.82;;
34988;SDS011;21192;40.182;44.516;2023-04-03T10:05:35;15.25;;;5.65;;
34988;SDS011;21192;40.182;44.516;2023-04-03T10:10:44;31.02;;;5.43;;
34988;SDS011;21192;40.182;44.516;2023-04-03T10:13:29;22.45;;;4.20;;
34988;SDS011;21192;40.182;44.516;2023-04-03T10:16:17;24.50;;;5.93;;
34988;SDS011;21192;40.182;44.516;2023-04-03T10:24:56;9.02;;;2.90;;
34988;SDS011;21192;40.182;44.516;2023-04-03T10:41:03;12.65;;;3.15;;
34988;SDS011;21192;40.182;44.516;2023-04-03T10:46:35;14.60;;;4.43;;
34988;SDS011;21192;40.182;44.516;2023-04-03T10:49:08;9.50;;;3.15;;
34988;SDS011;21192;40.182;44.516;2023-04-03T10:51:41;11.90;;;3.22;;
34988;SDS011;21192;40.182;44.516;2023-04-03T10:54:26;10.20;;;4.32;;
34988;SDS011;21192;40.182;44.516;2023-04-03T10:57:06;34.58;;;6.00;;
34988;SDS011;21192;40.182;44.516;2023-04-03T10:59:45;30.30;;;6.80;;
34988;SDS011;21192;40.182;44.516;2023-04-03T11:08:27;7.65;;;2.88;;
34988;SDS011;21192;40.182;44.516;2023-04-03T11:11:33;15.73;;;3.05;;
34988;SDS011;21192;40.182;44.516;2023-04-03T11:16:44;10.32;;;3.10;;
34988;SDS011;21192;40.182;44.516;2023-04-03T11:19:17;11.60;;;3.45;;
34988;SDS011;21192;40.182;44.516;2023-04-03T11:24:41;7.57;;;2.78;;
34988;SDS011;21192;40.182;44.516;2023-04-03T11:27:15;25.05;;;4.95;;
34988;SDS011;21192;40.182;44.516;2023-04-03T11:29:47;14.68;;;3.67;;
34988;SDS011;21192;40.182;44.516;2023-04-03T11:34:45;15.82;;;4.40;;
34988;SDS011;21192;40.182;44.516;2023-04-03T11:40:31;23.17;;;5.70;;
34988;SDS011;21192;40.182;44.516;2023-04-03T11:45:33;24.95;;;5.70;;
34988;SDS011;21192;40.182;44.516;2023-04-03T11:48:06;11.90;;;4.47;;
34988;SDS011;21192;40.182;44.516;2023-04-03T11:51:00;21.98;;;5.65;;
34988;SDS011;21192;40.182;44.516;2023-04-03T11:53:37;18.90;;;5.22;;
34988;SDS011;21192;40.182;44.516;2023-04-03T12:04:10;17.67;;;4.53;;
34988;SDS011;21192;40.182;44.516;2023-04-03T12:09:27;13.32;;;4.40;;
34988;SDS011;21192;40.182;44.516;2023-04-03T12:11:55;14.43;;;5.30;;
34988;SDS011;21192;40.182;44.516;2023-04-03T12:14:24;9.13;;;3.65;;
34988;SDS011;21192;40.182;44.516;2023-04-03T12:16:52;7.55;;;3.40;;
34988;SDS011;21192;40.182;44.516;2023-04-03T12:19:35;9.75;;;3.90;;
34988;SDS011;21192;40.182;44.516;2023-04-03T12:22:06;19.63;;;8.38;;
34988;SDS011;21192;40.182;44.516;2023-04-03T12:24:35;10.10;;;4.22;;
34988;SDS011;21192;40.182;44.516;2023-04-03T12:27:09;18.67;;;5.00;;
34988;SDS011;21192;40.182;44.516;2023-04-03T12:30:05;10.68;;;3.95;;
34988;SDS011;21192;40.182;44.516;2023-04-03T12:35:44;12.45;;;4.63;;
34988;SDS011;21192;40.182;44.516;2023-04-03T12:41:03;14.55;;;5.25;;
34988;SDS011;21192;40.182;44.516;2023-04-03T12:44:05;11.75;;;3.78;;
34988;SDS011;21192;40.182;44.516;2023-04-03T12:46:38;10.30;;;4.22;;
34988;SDS011;21192;40.182;44.516;2023-04-03T12:52:25;10.80;;;4.00;;
34988;SDS011;21192;40.182;44.516;2023-04-03T12:55:00;7.05;;;2.83;;
34988;SDS011;21192;40.182;44.516;2023-04-03T12:57:29;10.70;;;3.60;;
34988;SDS011;21192;40.182;44.516;2023-04-03T12:59:57;10.63;;;4.55;;
34988;SDS011;21192;40.182;44.516;2023-04-03T13:02:31;11.23;;;4.68;;
34988;SDS011;21192;40.182;44.516;2023-04-03T13:05:08;13.15;;;6.90;;
34988;SDS011;21192;40.182;44.516;2023-04-03T13:07:40;15.82;;;9.00;;
34988;SDS011;21192;40.182;44.516;2023-04-03T13:12:35;16.98;;;5.07;;
34988;SDS011;21192;40.182;44.516;2023-04-03T13:15:16;15.15;;;5.13;;
34988;SDS011;21192;40.182;44.516;2023-04-03T13:17:44;17.08;;;5.60;;
34988;SDS011;21192;40.182;44.516;2023-04-03T13:20:30;9.45;;;3.90;;
34988;SDS011;21192;40.182;44.516;2023-04-03T13:23:05;19.45;;;5.03;;
34988;SDS011;21192;40.182;44.516;2023-04-03T13:25:35;10.63;;;5.00;;
34988;SDS011;21192;40.182;44.516;2023-04-03T13:28:05;15.88;;;7.07;;
34988;SDS011;21192;40.182;44.516;2023-04-03T13:30:33;11.05;;;3.22;;
34988;SDS011;21192;40.182;44.516;2023-04-03T13:33:03;9.95;;;3.40;;
34988;SDS011;21192;40.182;44.516;2023-04-03T13:35:36;6.35;;;2.97;;
34988;SDS011;21192;40.182;44.516;2023-04-03T13:43:23;7.60;;;3.10;;
34988;SDS011;21192;40.182;44.516;2023-04-03T13:48:25;12.45;;;2.97;;
34988;SDS011;21192;40.182;44.516;2023-04-03T13:53:29;10.75;;;4.00;;
34988;SDS011;21192;40.182;44.516;2023-04-03T13:58:29;18.27;;;4.40;;
34988;SDS011;21192;40.182;44.516;2023-04-03T14:01:06;44.83;;;7.38;;
34988;SDS011;21192;40.182;44.516;2023-04-03T14:06:20;12.00;;;4.38;;
34988;SDS011;21192;40.182;44.516;2023-04-03T14:08:47;12.63;;;6.18;;
34988;SDS011;21192;40.182;44.516;2023-04-03T14:11:32;24.48;;;7.90;;
34988;SDS011;21192;40.182;44.516;2023-04-03T14:14:05;21.08;;;7.20;;
34988;SDS011;21192;40.182;44.516;2023-04-03T14:16:40;26.80;;;7.60;;
34988;SDS011;21192;40.182;44.516;2023-04-03T14:19:17;21.33;;;7.07;;
34988;SDS011;21192;40.182;44.516;2023-04-03T14:21:45;28.42;;;7.22;;
34988;SDS011;21192;40.182;44.516;2023-04-03T14:24:11;14.27;;;4.63;;
34988;SDS011;21192;40.182;44.516;2023-04-03T14:26:38;16.15;;;5.40;;
34988;SDS011;21192;40.182;44.516;2023-04-03T14:29:03;14.52;;;6.55;;
34988;SDS011;21192;40.182;44.516;2023-04-03T14:31:30;17.80;;;6.57;;
34988;SDS011;21192;40.182;44.516;2023-04-03T14:33:55;22.15;;;7.05;;
34988;SDS011;21192;40.182;44.516;2023-04-03T14:36:22;19.50;;;6.85;;
34988;SDS011;21192;40.182;44.516;2023-04-03T14:38:51;19.65;;;7.40;;
34988;SDS011;21192;40.182;44.516;2023-04-03T14:41:19;15.82;;;6.00;;
34988;SDS011;21192;40.182;44.516;2023-04-03T14:43:46;18.50;;;6.38;;
34988;SDS011;21192;40.182;44.516;2023-04-03T14:46:17;27.95;;;7.22;;
34988;SDS011;21192;40.182;44.516;2023-04-03T14:48:46;30.52;;;6.53;;
34988;SDS011;21192;40.182;44.516;2023-04-03T14:51:13;18.35;;;5.20;;
34988;SDS011;21192;40.182;44.516;2023-04-03T14:53:40;12.63;;;4.60;;
34988;SDS011;21192;40.182;44.516;2023-04-03T14:56:10;14.82;;;3.95;;
34988;SDS011;21192;40.182;44.516;2023-04-03T14:58:53;15.90;;;5.07;;
34988;SDS011;21192;40.182;44.516;2023-04-03T15:01:22;15.18;;;3.80;;
34988;SDS011;21192;40.182;44.516;2023-04-03T15:03:48;19.02;;;4.75;;
34988;SDS011;21192;40.182;44.516;2023-04-03T15:06:14;21.77;;;4.85;;
34988;SDS011;21192;40.182;44.516;2023-04-03T15:08:41;25.90;;;4.53;;
34988;SDS011;21192;40.182;44.516;2023-04-03T15:11:12;22.98;;;5.28;;
34988;SDS011;21192;40.182;44.516;2023-04-03T15:13:39;15.57;;;5.10;;
34988;SDS011;21192;40.182;44.516;2023-04-03T15:16:10;17.25;;;5.20;;
34988;SDS011;21192;40.182;44.516;2023-04-03T15:18:42;14.30;;;4.53;;
34988;SDS011;21192;40.182;44.516;2023-04-03T15:21:09;12.68;;;4.57;;
34988;SDS011;21192;40.182;44.516;2023-04-03T15:23:35;12.90;;;4.97;;
34988;SDS011;21192;40.182;44.516;2023-04-03T15:26:01;15.95;;;5.47;;
34988;SDS011;21192;40.182;44.516;2023-04-03T15:28:32;14.63;;;4.95;;
34988;SDS011;21192;40.182;44.516;2023-04-03T15:31:01;12.70;;;3.92;;
34988;SDS011;21192;40.182;44.516;2023-04-03T15:33:28;8.48;;;4.32;;
34988;SDS011;21192;40.182;44.516;2023-04-03T15:35:54;14.07;;;4.30;;
34988;SDS011;21192;40.182;44.516;2023-04-03T15:38:20;12.15;;;4.80;;
34988;SDS011;21192;40.182;44.516;2023-04-03T15:40:46;13.68;;;5.40;;
34988;SDS011;21192;40.182;44.516;2023-04-03T15:43:13;11.75;;;5.25;;
34988;SDS011;21192;40.182;44.516;2023-04-03T15:45:39;7.97;;;4.35;;
34988;SDS011;21192;40.182;44.516;2023-04-03T15:48:05;9.00;;;3.95;;
34988;SDS011;21192;40.182;44.516;2023-04-03T15:50:33;14.07;;;6.40;;
34988;SDS011;21192;40.182;44.516;2023-04-03T15:52:59;17.23;;;5.95;;
34988;SDS011;21192;40.182;44.516;2023-04-03T15:55:27;11.43;;;4.72;;
34988;SDS011;21192;40.182;44.516;2023-04-03T15:57:54;11.50;;;4.32;;
34988;SDS011;21192;40.182;44.516;2023-04-03T16:00:21;11.52;;;5.18;;
34988;SDS011;21192;40.182;44.516;2023-04-03T16:02:48;14.23;;;5.07;;
34988;SDS011;21192;40.182;44.516;2023-04-03T16:05:18;11.85;;;4.97;;
34988;SDS011;21192;40.182;44.516;2023-04-03T16:07:44;9.80;;;3.85;;
34988;SDS011;21192;40.182;44.516;2023-04-03T16:10:12;10.10;;;4.45;;
34988;SDS011;21192;40.182;44.516;2023-04-03T16:12:38;12.18;;;4.53;;
34988;SDS011;21192;40.182;44.516;2023-04-03T16:15:05;13.02;;;4.25;;
34988;SDS011;21192;40.182;44.516;2023-04-03T16:17:32;12.80;;;6.22;;
34988;SDS011;21192;40.182;44.516;2023-04-03T16:19:59;10.95;;;5.57;;
34988;SDS011;21192;40.182;44.516;2023-04-03T16:22:26;11.13;;;5.47;;
34988;SDS011;21192;40.182;44.516;2023-04-03T16:24:53;8.10;;;3.97;;
34988;SDS011;21192;40.182;44.516;2023-04-03T16:27:20;11.50;;;6.18;;
34988;SDS011;21192;40.182;44.516;2023-04-03T16:29:46;11.43;;;5.28;;
34988;SDS011;21192;40.182;44.516;2023-04-03T16:32:12;14.27;;;6.57;;
34988;SDS011;21192;40.182;44.516;2023-04-03T16:34:39;13.38;;;5.43;;